This is the latest recevied weather packets stored in our database for station/object OM8AGG-10. If no packets are shown the sender has not sent any weather packets the latest 10 day(s).
| Time | Temp. | Humidity | Pressure | Rain* | Wind** | Luminosity | Snow |
|---|---|---|---|---|---|---|---|
| 1788644624 | 14.44° C | 80% | 1021.6 hPa | - | - | - | - |
| 1788643724 | 14.44° C | 79% | 1021.6 hPa | - | - | - | - |
| 1788642824 | 14.44° C | 76% | 1021.3 hPa | - | - | - | - |
| 1788641924 | 14.44° C | 75% | 1021.4 hPa | - | - | - | - |
| 1788641024 | 14.44° C | 76% | 1021.3 hPa | - | - | - | - |
| 1788640123 | 13.89° C | 75% | 1021.2 hPa | - | - | - | - |
| 1788639223 | 13.89° C | 80% | 1021.2 hPa | - | - | - | - |
| 1788638323 | 13.89° C | 83% | 1021.1 hPa | - | - | - | - |
| 1788636523 | 16.11° C | 67% | 1020.5 hPa | - | - | - | - |
| 1788635623 | 16.67° C | 61% | 1020.5 hPa | - | - | - | - |
| 1788634723 | 17.22° C | 62% | 1020.2 hPa | - | - | - | - |
| 1788632922 | 17.78° C | 79% | 1020.1 hPa | - | - | - | - |
| 1788632022 | 17.78° C | 80% | 1019.8 hPa | - | - | - | - |
| 1788631122 | 17.78° C | 79% | 1019.6 hPa | - | - | - | - |
| 1788630222 | 17.78° C | 77% | 1019.3 hPa | - | - | - | - |
| 1788629322 | 18.89° C | 73% | 1019 hPa | - | - | - | - |
| 1788628422 | 19.44° C | 71% | 1018.9 hPa | - | - | - | - |
| 1788627522 | 20° C | 69% | 1018.6 hPa | - | - | - | - |
| 1788626621 | 21.11° C | 59% | 1018.4 hPa | - | - | - | - |
| 1788625721 | 22.22° C | 57% | 1018.4 hPa | - | - | - | - |
| 1788624821 | 24.44° C | 50% | 1018.2 hPa | - | - | - | - |
| 1788623921 | 24.44° C | 51% | 1018.2 hPa | - | - | - | - |
| 1788623021 | 24.44° C | 51% | 1018.3 hPa | - | - | - | - |
| 1788622121 | 23.33° C | 55% | 1018.4 hPa | - | - | - | - |
| 1788621221 | 23.33° C | 54% | 1018.5 hPa | - | - | - | - |
* Rain since midnight (hover to see other rain measurements)
** Current wind speed in m/s (hover to see current wind gust speed)